createdAt,value
2018-02-08T00:02:16.962Z,1.50
2018-02-08T00:04:45.062Z,1.40
2018-02-08T00:07:13.112Z,1.40
2018-02-08T00:09:41.173Z,1.40
2018-02-08T00:12:11.658Z,1.40
2018-02-08T00:14:45.482Z,1.40
2018-02-08T00:20:21.189Z,1.60
2018-02-08T00:22:49.998Z,1.70
2018-02-08T00:25:19.045Z,1.70
2018-02-08T00:27:47.120Z,1.60
2018-02-08T00:30:15.204Z,1.60
2018-02-08T00:32:44.028Z,1.40
2018-02-08T00:35:12.107Z,1.40
2018-02-08T00:37:41.946Z,1.30
2018-02-08T00:40:10.973Z,1.40
2018-02-08T00:42:41.045Z,1.30
2018-02-08T00:45:20.865Z,1.30
2018-02-08T00:47:48.949Z,1.30
2018-02-08T00:50:17.025Z,1.30
2018-02-08T00:52:45.143Z,1.30
2018-02-08T00:55:13.278Z,1.20
2018-02-08T00:58:01.863Z,1.30
2018-02-08T01:00:37.570Z,1.30
2018-02-08T01:03:09.699Z,1.30
2018-02-08T01:05:42.553Z,1.20
2018-02-08T01:08:10.921Z,1.30
2018-02-08T01:10:41.644Z,1.30
2018-02-08T01:13:11.938Z,1.30
2018-02-08T01:15:57.307Z,1.30
2018-02-08T01:18:44.143Z,1.30
2018-02-08T01:21:13.086Z,1.30
2018-02-08T01:23:41.196Z,1.30
2018-02-08T01:26:10.790Z,1.40
2018-02-08T01:28:41.840Z,1.40
2018-02-08T01:31:35.363Z,1.60
2018-02-08T01:34:18.421Z,1.60
2018-02-08T01:39:47.155Z,1.50
2018-02-08T01:42:15.999Z,1.60
2018-02-08T01:44:44.202Z,1.60
2018-02-08T01:47:12.253Z,1.60
2018-02-08T01:50:01.086Z,1.60
2018-02-08T01:53:01.219Z,1.40
2018-02-08T01:55:34.337Z,1.40
2018-02-08T01:58:33.344Z,1.40
2018-02-08T02:01:07.333Z,1.30
2018-02-08T02:03:38.792Z,1.30
2018-02-08T02:06:09.815Z,1.20
2018-02-08T02:08:40.743Z,1.20
2018-02-08T02:11:32.217Z,1.20
2018-02-08T02:14:06.699Z,1.20
2018-02-08T02:19:45.993Z,1.20
2018-02-08T02:22:14.817Z,1.30
2018-02-08T02:24:43.113Z,1.30
2018-02-08T02:27:11.193Z,1.30
2018-02-08T02:29:41.096Z,1.50
2018-02-08T02:32:32.362Z,1.50
2018-02-08T02:44:33.847Z,1.30
2018-02-08T02:47:29.551Z,1.30
2018-02-08T02:50:02.953Z,1.30
2018-02-08T02:52:36.395Z,1.20
2018-02-08T02:55:06.886Z,1.20
2018-02-08T02:57:41.273Z,1.30
2018-02-08T03:00:13.716Z,1.30
2018-02-08T03:03:01.363Z,1.20
2018-02-08T03:08:45.386Z,1.20
2018-02-08T03:11:13.817Z,1.20
2018-02-08T03:13:42.758Z,1.20
2018-02-08T03:16:13.096Z,1.10
2018-02-08T03:18:42.446Z,1.20
2018-02-08T03:21:30.407Z,1.20
2018-02-08T03:24:14.226Z,1.20
2018-02-08T03:33:01.380Z,1.20
2018-02-08T03:35:36.577Z,1.20
2018-02-08T03:38:08.091Z,1.20
2018-02-08T03:40:40.206Z,1.20
2018-02-08T03:43:13.286Z,1.20
2018-02-08T03:49:04.450Z,1.20
2018-02-08T03:51:59.955Z,1.20
2018-02-08T03:54:46.671Z,1.20
2018-02-08T04:00:11.275Z,1.20
2018-02-08T04:02:43.707Z,1.20
2018-02-08T04:05:13.651Z,1.20
2018-02-08T04:07:43.970Z,1.30
2018-02-08T04:10:12.755Z,1.20
2018-02-08T04:12:44.833Z,1.20
2018-02-08T04:15:13.701Z,1.10
2018-02-08T04:17:47.946Z,1.10
2018-02-08T04:20:16.291Z,1.10
2018-02-08T04:22:44.467Z,1.10
2018-02-08T04:25:34.389Z,0.90
2018-02-08T04:28:06.633Z,0.90
2018-02-08T04:30:40.758Z,0.90
2018-02-08T04:33:11.790Z,0.90
2018-02-08T04:35:43.137Z,0.90
2018-02-08T04:38:34.381Z,1.00
2018-02-08T04:41:31.768Z,1.00
2018-02-08T04:44:14.789Z,1.10
2018-02-08T04:50:06.866Z,1.00
2018-02-08T04:52:51.934Z,1.10
2018-02-08T04:55:21.732Z,1.10
2018-02-08T04:57:49.909Z,1.10
2018-02-08T05:00:21.459Z,1.10
2018-02-08T05:03:09.817Z,1.10
2018-02-08T05:05:42.803Z,1.10
2018-02-08T05:08:10.862Z,1.20
2018-02-08T05:10:42.365Z,1.20
2018-02-08T05:13:12.453Z,1.30
2018-02-08T05:15:43.465Z,1.30
2018-02-08T05:18:13.475Z,1.30
2018-02-08T05:20:41.536Z,1.20
2018-02-08T05:23:11.504Z,1.20
2018-02-08T05:25:42.137Z,1.20
2018-02-08T05:28:10.220Z,1.30
2018-02-08T05:30:38.278Z,1.30
2018-02-08T05:33:10.034Z,1.30
2018-02-08T05:35:42.107Z,1.20
2018-02-08T05:41:12.824Z,1.40
2018-02-08T05:43:40.898Z,1.50
2018-02-08T05:46:12.978Z,1.40
2018-02-08T05:48:41.053Z,1.30
2018-02-08T05:51:17.795Z,1.30
2018-02-08T05:53:45.864Z,1.20
2018-02-08T05:56:14.342Z,1.20
2018-02-08T05:58:43.400Z,1.20
2018-02-08T06:01:14.113Z,1.20
2018-02-08T06:03:42.397Z,1.10
2018-02-08T06:06:31.810Z,1.20
2018-02-08T06:09:33.605Z,1.20
2018-02-08T06:12:32.424Z,1.20
2018-02-08T06:18:11.822Z,1.20
2018-02-08T06:20:43.461Z,1.10
2018-02-08T06:23:13.298Z,1.20
2018-02-08T06:25:42.618Z,1.10
2018-02-08T06:28:13.451Z,1.10
2018-02-08T06:30:42.910Z,1.00
2018-02-08T06:33:10.976Z,1.00
2018-02-08T06:35:41.206Z,0.90
2018-02-08T06:38:10.806Z,0.90
2018-02-08T06:40:41.841Z,0.90
2018-02-08T06:43:12.143Z,0.90
2018-02-08T06:48:41.738Z,0.90
2018-02-08T06:51:11.299Z,1.00
2018-02-08T06:53:39.341Z,1.00
2018-02-08T06:56:08.717Z,1.00
2018-02-08T06:58:40.318Z,1.00
2018-02-08T07:01:31.139Z,1.00
2018-02-08T07:04:31.199Z,1.00
2018-02-08T07:07:13.523Z,1.20
2018-02-08T07:09:42.119Z,1.30
2018-02-08T07:12:10.223Z,1.40
2018-02-08T07:14:41.303Z,1.40
2018-02-08T07:17:11.693Z,1.40
2018-02-08T07:19:39.921Z,1.50
2018-02-08T07:22:32.030Z,1.50
2018-02-08T07:25:01.348Z,1.50
2018-02-08T07:27:32.779Z,1.60
2018-02-08T07:30:26.510Z,1.70
2018-02-08T07:33:09.385Z,1.60
2018-02-08T07:35:41.114Z,1.40
2018-02-08T07:38:11.002Z,1.30
2018-02-08T07:40:41.855Z,1.20
2018-02-08T07:43:11.764Z,1.20
2018-02-08T07:46:04.127Z,1.20
2018-02-08T07:48:34.297Z,1.20
2018-02-08T07:51:03.867Z,1.20
2018-02-08T07:53:34.216Z,1.20
2018-02-08T07:56:11.742Z,1.20
2018-02-08T08:01:49.349Z,1.40
2018-02-08T08:04:18.213Z,1.60
2018-02-08T08:06:46.420Z,1.50
2018-02-08T08:09:14.468Z,1.40
2018-02-08T08:11:42.529Z,1.30
2018-02-08T08:14:11.499Z,1.30
2018-02-08T08:16:39.772Z,1.30
2018-02-08T08:19:08.673Z,1.30
2018-02-08T08:21:44.776Z,1.30
2018-02-08T08:24:12.826Z,1.30
2018-02-08T08:26:40.990Z,1.30
2018-02-08T08:29:10.032Z,1.40
2018-02-08T08:31:43.155Z,1.50
2018-02-08T08:34:11.216Z,1.60
2018-02-08T08:36:39.409Z,1.40
2018-02-08T08:39:07.708Z,1.30
2018-02-08T08:41:43.974Z,1.30
2018-02-08T08:44:12.114Z,1.20
2018-02-08T08:46:40.810Z,1.10
2018-02-08T08:49:09.924Z,1.00
2018-02-08T08:51:39.148Z,1.00
2018-02-08T08:54:35.055Z,1.10
2018-02-08T08:57:27.827Z,1.10
2018-02-08T09:00:16.683Z,1.30
2018-02-08T09:02:44.774Z,1.30
2018-02-08T09:05:12.841Z,1.30
2018-02-08T09:07:42.614Z,1.40
2018-02-08T09:10:10.999Z,1.40
2018-02-08T09:13:02.432Z,1.40
2018-02-08T09:15:32.480Z,1.50
2018-02-08T09:18:08.805Z,1.50
2018-02-08T09:20:39.085Z,1.80
2018-02-08T09:23:08.901Z,1.80
2018-02-08T09:25:37.535Z,1.80
2018-02-08T09:28:10.683Z,1.90
2018-02-08T09:31:02.444Z,1.90
2018-02-08T09:33:50.361Z,1.90
2018-02-08T09:36:18.654Z,2.00
2018-02-08T09:38:46.868Z,1.70
2018-02-08T09:41:16.817Z,1.70
2018-02-08T09:43:45.557Z,1.70
2018-02-08T09:46:30.298Z,1.70
2018-02-08T09:49:27.238Z,1.70
2018-02-08T09:52:03.553Z,2.00
2018-02-08T09:54:42.031Z,1.80
2018-02-08T09:57:11.263Z,1.80
2018-02-08T09:59:40.068Z,1.90
2018-02-08T10:02:12.188Z,1.90
2018-02-08T10:04:42.238Z,2.00
2018-02-08T10:07:29.711Z,2.10
2018-02-08T10:10:07.559Z,2.30
2018-02-08T10:12:47.746Z,2.50
2018-02-08T10:15:15.857Z,2.50
2018-02-08T10:17:43.902Z,2.60
2018-02-08T10:20:12.460Z,2.50
2018-02-08T10:22:41.862Z,2.30
2018-02-08T10:25:10.539Z,2.30
2018-02-08T10:27:41.842Z,2.20
2018-02-08T10:30:10.977Z,2.40
2018-02-08T10:32:41.647Z,2.50
2018-02-08T10:35:13.299Z,2.20
2018-02-08T10:37:47.667Z,2.20
2018-02-08T10:40:15.791Z,2.00
2018-02-08T10:42:44.723Z,2.00
2018-02-08T10:45:12.792Z,1.90
2018-02-08T10:47:41.624Z,2.10
2018-02-08T10:50:13.203Z,2.00
2018-02-08T10:53:05.130Z,2.00
2018-02-08T10:55:38.494Z,2.10
2018-02-08T10:58:06.926Z,2.10
2018-02-08T11:00:36.064Z,2.10
2018-02-08T11:03:05.287Z,2.10
2018-02-08T11:08:37.696Z,2.30
2018-02-08T11:11:14.249Z,2.50
2018-02-08T11:13:46.266Z,2.60
2018-02-08T11:16:14.310Z,2.70
2018-02-08T11:18:42.355Z,2.90
2018-02-08T11:21:12.444Z,2.90
2018-02-08T11:24:00.674Z,3.00
2018-02-08T11:27:03.700Z,3.20
2018-02-08T11:29:38.700Z,3.20
2018-02-08T11:32:11.198Z,3.50
2018-02-08T11:34:39.235Z,3.50
2018-02-08T11:37:09.530Z,3.60
2018-02-08T11:39:37.582Z,3.60
2018-02-08T11:42:06.802Z,3.80
2018-02-08T11:47:46.557Z,3.90
2018-02-08T11:50:14.624Z,4.00
2018-02-08T11:52:42.687Z,4.10
2018-02-08T11:55:13.623Z,4.20
2018-02-08T11:57:42.122Z,4.50
2018-02-08T12:00:13.085Z,4.80
2018-02-08T12:02:41.731Z,4.90
2018-02-08T12:05:10.537Z,4.80
2018-02-08T12:07:40.050Z,4.70
2018-02-08T12:10:10.224Z,4.80
2018-02-08T12:12:40.906Z,4.70
2018-02-08T12:15:47.334Z,5.20
2018-02-08T12:18:15.456Z,5.10
2018-02-08T12:20:43.507Z,5.20
2018-02-08T12:23:12.694Z,5.60
2018-02-08T12:25:41.234Z,5.90
2018-02-08T12:28:10.389Z,5.80
2018-02-08T12:30:43.344Z,6.10
2018-02-08T12:33:12.723Z,6.20
2018-02-08T12:35:41.627Z,6.20
2018-02-08T12:38:10.784Z,6.20
2018-02-08T12:40:40.188Z,6.20
2018-02-08T12:43:08.503Z,5.90
2018-02-08T12:45:37.752Z,5.20
2018-02-08T12:48:06.424Z,4.90
2018-02-08T12:50:36.385Z,4.90
2018-02-08T12:53:07.220Z,5.20
2018-02-08T12:55:58.761Z,5.90
2018-02-08T12:58:33.532Z,6.70
2018-02-08T13:01:30.109Z,6.70
2018-02-08T13:04:01.546Z,6.70
2018-02-08T13:06:34.646Z,6.50
2018-02-08T13:09:07.506Z,6.00
2018-02-08T13:11:40.865Z,5.70
2018-02-08T13:14:11.085Z,6.10
2018-02-08T13:16:44.184Z,6.40
2018-02-08T13:19:12.537Z,6.40
2018-02-08T13:21:41.448Z,6.10
2018-02-08T13:24:10.930Z,5.90
2018-02-08T13:26:40.503Z,5.90
2018-02-08T13:29:13.806Z,5.00
2018-02-08T13:32:12.394Z,4.80
2018-02-08T13:34:49.824Z,4.80
2018-02-08T13:37:17.893Z,4.80
2018-02-08T13:39:48.395Z,4.70
2018-02-08T13:42:17.682Z,4.70
2018-02-08T13:44:45.744Z,4.60
2018-02-08T13:47:19.456Z,4.70
2018-02-08T13:49:48.065Z,4.60
2018-02-08T13:52:19.115Z,4.50
2018-02-08T13:54:54.717Z,4.60
2018-02-08T14:01:00.793Z,4.50
2018-02-08T14:03:33.472Z,4.50
2018-02-08T14:06:07.591Z,4.60
2018-02-08T14:12:00.378Z,4.90
2018-02-08T14:17:13.372Z,4.80
2018-02-08T14:19:41.401Z,5.20
2018-02-08T14:22:10.734Z,5.50
2018-02-08T14:25:00.713Z,5.90
2018-02-08T14:27:37.075Z,5.90
2018-02-08T14:30:29.706Z,6.10
2018-02-08T14:33:03.896Z,6.20
2018-02-08T14:35:42.484Z,5.80
2018-02-08T14:38:11.353Z,5.80
2018-02-08T14:40:40.157Z,5.40
2018-02-08T14:43:10.532Z,5.30
2018-02-08T14:45:41.217Z,5.30
2018-02-08T14:51:37.251Z,5.20
2018-02-08T14:54:18.341Z,5.10
2018-02-08T14:56:46.389Z,5.10
2018-02-08T14:59:15.217Z,4.80
2018-02-08T15:01:43.239Z,4.80
2018-02-08T15:04:29.433Z,4.80
2018-02-08T15:07:03.841Z,4.80
2018-02-08T15:09:41.298Z,4.60
2018-02-08T15:12:09.347Z,4.60
2018-02-08T15:14:38.545Z,4.50
2018-02-08T15:17:08.808Z,4.50
2018-02-08T15:19:37.801Z,4.50
2018-02-08T15:22:27.898Z,4.40
2018-02-08T15:25:12.608Z,4.50
2018-02-08T15:27:42.664Z,4.40
2018-02-08T15:30:12.404Z,4.20
2018-02-08T15:32:41.254Z,4.10
2018-02-08T15:35:11.763Z,4.00
2018-02-08T15:37:42.843Z,3.90
2018-02-08T15:40:11.374Z,3.80
2018-02-08T15:42:39.411Z,3.60
2018-02-08T15:45:08.731Z,3.50
2018-02-08T15:47:38.160Z,3.60
2018-02-08T15:50:08.838Z,3.60
2018-02-08T15:53:08.706Z,3.60
2018-02-08T15:55:42.551Z,3.80
2018-02-08T15:58:17.723Z,3.80
2018-02-08T16:00:46.545Z,3.90
2018-02-08T16:03:14.652Z,3.80
2018-02-08T16:05:42.998Z,3.90
2018-02-08T16:08:11.802Z,3.80
2018-02-08T16:10:42.683Z,3.80
2018-02-08T16:13:10.777Z,3.70
2018-02-08T16:15:39.543Z,3.40
2018-02-08T16:18:08.514Z,3.30
2018-02-08T16:20:37.908Z,3.20
2018-02-08T16:23:07.610Z,3.00
2018-02-08T16:25:35.930Z,2.90
2018-02-08T16:28:04.972Z,2.80
2018-02-08T16:30:35.450Z,2.70
2018-02-08T16:33:06.809Z,2.60
2018-02-08T16:36:00.773Z,2.50
2018-02-08T16:38:55.981Z,2.40
2018-02-08T16:41:31.753Z,2.40
2018-02-08T16:44:30.646Z,2.30
2018-02-08T16:47:00.785Z,2.20
2018-02-08T16:49:31.824Z,2.10
2018-02-08T16:52:04.362Z,2.10
2018-02-08T16:54:34.992Z,2.10
2018-02-08T16:57:04.213Z,2.00
2018-02-08T16:59:33.474Z,1.90
2018-02-08T17:02:02.112Z,1.90
2018-02-08T17:04:33.274Z,1.90
2018-02-08T17:07:03.535Z,1.90
2018-02-08T17:09:32.336Z,1.90
2018-02-08T17:12:10.860Z,1.90
2018-02-08T17:14:39.231Z,1.90
2018-02-08T17:17:08.216Z,1.90
2018-02-08T17:19:36.437Z,1.90
2018-02-08T17:22:05.110Z,1.90
2018-02-08T17:24:33.262Z,1.80
2018-02-08T17:27:10.261Z,1.90
2018-02-08T17:29:38.778Z,1.90
2018-02-08T17:32:07.043Z,1.90
2018-02-08T17:34:35.952Z,2.10
2018-02-08T17:37:04.155Z,2.20
2018-02-08T17:39:32.215Z,2.30
2018-02-08T17:42:00.399Z,2.30
2018-02-08T17:44:28.852Z,2.30
2018-02-08T17:46:58.112Z,2.20
2018-02-08T17:49:26.679Z,2.00
2018-02-08T17:51:55.977Z,1.80
2018-02-08T17:54:26.385Z,1.80
2018-02-08T17:56:58.784Z,1.80
2018-02-08T17:59:28.052Z,1.60
2018-02-08T18:01:56.506Z,1.60
2018-02-08T18:04:24.718Z,1.60
2018-02-08T18:06:53.626Z,1.60
2018-02-08T18:09:21.832Z,1.60
2018-02-08T18:11:49.902Z,1.50
2018-02-08T18:14:18.013Z,1.60
2018-02-08T18:16:46.060Z,1.50
2018-02-08T18:19:14.112Z,1.50
2018-02-08T18:21:42.603Z,1.50
2018-02-08T18:24:10.655Z,1.50
2018-02-08T18:26:38.702Z,1.40
2018-02-08T18:29:06.789Z,1.50
2018-02-08T18:31:34.835Z,1.70
2018-02-08T18:34:02.887Z,1.80
2018-02-08T18:36:30.951Z,1.80
2018-02-08T18:38:59.108Z,1.80
2018-02-08T18:41:27.207Z,1.60
2018-02-08T18:43:55.294Z,1.60
2018-02-08T18:46:23.412Z,1.50
2018-02-08T18:48:51.540Z,1.50
2018-02-08T18:51:20.488Z,1.40
2018-02-08T18:53:48.831Z,1.50
2018-02-08T18:56:16.996Z,1.60
2018-02-08T18:58:45.044Z,1.50
2018-02-08T19:01:13.553Z,1.40
2018-02-08T19:03:42.347Z,1.40
2018-02-08T19:06:10.414Z,1.40
2018-02-08T19:08:38.467Z,1.40
2018-02-08T19:11:07.295Z,1.30
2018-02-08T19:13:35.369Z,1.20
2018-02-08T19:16:03.433Z,1.20
2018-02-08T19:18:32.258Z,1.30
2018-02-08T19:21:00.327Z,1.20
2018-02-08T19:23:29.147Z,1.30
2018-02-08T19:25:57.195Z,1.20
2018-02-08T19:28:26.588Z,1.30
2018-02-08T19:30:55.473Z,1.30
2018-02-08T19:33:23.532Z,1.30
2018-02-08T19:35:51.607Z,1.30
2018-02-08T19:38:19.703Z,1.20
2018-02-08T19:40:47.900Z,1.20
2018-02-08T19:43:15.956Z,1.30
2018-02-08T19:45:44.240Z,1.20
2018-02-08T19:48:13.059Z,0.90
2018-02-08T19:50:41.100Z,0.90
2018-02-08T19:53:09.167Z,0.70
2018-02-08T19:55:37.217Z,0.60
2018-02-08T19:58:05.274Z,0.70
2018-02-08T20:00:33.322Z,0.60
2018-02-08T20:03:02.187Z,0.50
2018-02-08T20:05:30.248Z,0.50
2018-02-08T20:07:58.302Z,0.50
2018-02-08T20:10:26.347Z,0.40
2018-02-08T20:12:54.393Z,0.40
2018-02-08T20:15:26.900Z,0.30
2018-02-08T20:17:54.950Z,0.30
2018-02-08T20:20:23.779Z,0.30
2018-02-08T20:22:52.264Z,0.30
2018-02-08T20:25:25.887Z,0.30
2018-02-08T20:27:53.960Z,0.30
2018-02-08T20:30:22.019Z,0.30
2018-02-08T20:32:51.229Z,0.20
2018-02-08T20:35:19.262Z,0.20
2018-02-08T20:37:47.328Z,0.20
2018-02-08T20:40:21.888Z,0.20
2018-02-08T20:42:55.510Z,0.20
2018-02-08T20:45:23.572Z,0.50
2018-02-08T20:47:51.627Z,0.50
2018-02-08T20:50:19.697Z,0.40
2018-02-08T20:52:48.518Z,0.30
2018-02-08T20:55:17.529Z,0.30
2018-02-08T20:57:45.644Z,0.30
2018-02-08T21:00:13.698Z,0.20
2018-02-08T21:02:42.061Z,0.20
2018-02-08T21:05:10.895Z,0.10
2018-02-08T21:07:39.068Z,0.10
2018-02-08T21:10:07.124Z,0.10
2018-02-08T21:12:35.454Z,0.20
2018-02-08T21:15:04.276Z,0.20
2018-02-08T21:17:32.335Z,0.20
2018-02-08T21:20:00.408Z,0.20
2018-02-08T21:22:28.461Z,0.20
2018-02-08T21:24:56.561Z,0.20
2018-02-08T21:27:25.398Z,0.20
2018-02-08T21:29:53.447Z,0.20
2018-02-08T21:32:22.280Z,0.20
2018-02-08T21:34:50.344Z,0.20
2018-02-08T21:37:18.409Z,0.30
2018-02-08T21:39:47.728Z,0.50
2018-02-08T21:42:15.833Z,0.50
2018-02-08T21:44:43.888Z,0.70
2018-02-08T21:47:12.759Z,0.80
2018-02-08T21:49:40.816Z,0.80
2018-02-08T21:52:08.906Z,0.70
2018-02-08T21:54:36.981Z,0.60
2018-02-08T21:57:05.041Z,0.60
2018-02-08T21:59:33.095Z,0.60
2018-02-08T22:02:01.147Z,0.70
2018-02-08T22:04:29.209Z,0.60
2018-02-08T22:06:57.315Z,0.70
2018-02-08T22:09:25.386Z,0.70
2018-02-08T22:11:53.470Z,0.90
2018-02-08T22:14:22.312Z,0.90
2018-02-08T22:16:51.139Z,0.90
2018-02-08T22:19:23.217Z,0.90
2018-02-08T22:21:52.042Z,1.10
2018-02-08T22:24:20.134Z,1.00
2018-02-08T22:26:48.200Z,1.20
2018-02-08T22:29:16.254Z,1.20
2018-02-08T22:31:44.320Z,1.10
2018-02-08T22:34:12.366Z,1.10
2018-02-08T22:36:40.454Z,1.00
2018-02-08T22:39:08.518Z,1.00
2018-02-08T22:41:36.700Z,1.10
2018-02-08T22:44:06.300Z,1.10
2018-02-08T22:46:35.120Z,1.20
2018-02-08T22:49:03.255Z,1.10
2018-02-08T22:51:31.513Z,1.20
2018-02-08T22:53:59.681Z,1.40
2018-02-08T22:56:28.893Z,1.40
2018-02-08T22:59:08.824Z,1.20
2018-02-08T23:01:37.092Z,1.20
2018-02-08T23:04:05.509Z,1.20
2018-02-08T23:06:33.670Z,1.20
2018-02-08T23:09:02.035Z,1.20
2018-02-08T23:11:30.343Z,1.20
2018-02-08T23:13:59.488Z,1.20
2018-02-08T23:16:29.370Z,1.50
2018-02-08T23:18:58.956Z,1.50
2018-02-08T23:21:28.530Z,1.60
2018-02-08T23:23:58.620Z,1.80
2018-02-08T23:26:27.815Z,1.70
2018-02-08T23:29:01.055Z,1.70
2018-02-08T23:31:31.044Z,1.70
2018-02-08T23:34:01.210Z,1.60
2018-02-08T23:36:32.186Z,1.70
2018-02-08T23:39:12.327Z,1.80
2018-02-08T23:41:41.433Z,1.80
2018-02-08T23:44:10.189Z,1.70
2018-02-08T23:46:39.081Z,1.70
2018-02-08T23:49:09.169Z,1.70
2018-02-08T23:51:38.176Z,1.70
2018-02-08T23:54:11.754Z,1.70
2018-02-08T23:56:42.732Z,1.80
2018-02-08T23:59:11.551Z,1.60
